Time;durP1;ratioP1;P1;durP2;ratioP2;P2;SDS_P1;SDS_P2;PMS_P1;PMS_P2;Temp;Humidity;BMP_temperature;BMP_pressure;BME280_temperature;BME280_humidity;BME280_pressure;Samples;Min_cycle;Max_cycle;Signal;HPM_P1;HPM_P2
2023/04/30 00:00:51;;;;;;;4.63;1.17;;;7.60;99.90;;;;;;5083923;28;20047;-77
2023/04/30 00:03:17;;;;;;;2.60;1.20;;;7.60;99.90;;;;;;5091948;28;20122;-77
2023/04/30 00:05:42;;;;;;;2.20;1.10;;;7.50;99.90;;;;;;5134563;27;20485;-77
2023/04/30 00:08:08;;;;;;;1.27;0.65;;;7.50;99.90;;;;;;5084384;28;20067;-77
2023/04/30 00:10:33;;;;;;;2.33;0.90;;;7.40;99.90;;;;;;5122154;27;20043;-77
2023/04/30 00:12:59;;;;;;;3.80;0.95;;;7.40;99.90;;;;;;5071232;28;20389;-77
2023/04/30 00:15:25;;;;;;;3.65;1.23;;;7.30;99.90;;;;;;5138881;27;20042;-77
2023/04/30 00:17:51;;;;;;;2.75;1.23;;;7.30;99.90;;;;;;5136623;27;20043;-77
2023/04/30 00:20:17;;;;;;;2.40;1.17;;;7.30;99.90;;;;;;5101810;28;20059;-77
2023/04/30 00:22:42;;;;;;;3.67;1.35;;;7.30;99.90;;;;;;5109131;28;20066;-77
2023/04/30 00:25:08;;;;;;;2.75;1.38;;;7.20;99.90;;;;;;5137070;27;20062;-77
2023/04/30 00:27:34;;;;;;;2.80;1.10;;;7.20;99.90;;;;;;5086251;28;20055;-77
2023/04/30 00:29:59;;;;;;;7.45;1.50;;;7.10;99.90;;;;;;5112561;27;20465;-77
2023/04/30 00:32:25;;;;;;;2.85;1.30;;;7.10;99.90;;;;;;5073720;28;20032;-77
2023/04/30 00:34:51;;;;;;;3.17;1.40;;;7.00;99.90;;;;;;5137513;27;20467;-77
2023/04/30 00:37:16;;;;;;;2.50;1.33;;;7.00;99.90;;;;;;5121415;27;20299;-77
2023/04/30 00:39:42;;;;;;;2.22;1.20;;;7.00;99.90;;;;;;5087183;28;20039;-77
2023/04/30 00:42:07;;;;;;;2.05;1.27;;;6.90;99.90;;;;;;5137160;27;20147;-77
2023/04/30 00:44:33;;;;;;;2.83;1.60;;;6.90;99.90;;;;;;5141984;27;20039;-77
2023/04/30 00:46:59;;;;;;;2.40;1.15;;;6.90;99.90;;;;;;5085992;28;20028;-77
2023/04/30 00:49:25;;;;;;;2.78;1.30;;;6.90;99.90;;;;;;5101324;27;20089;-77
2023/04/30 00:51:51;;;;;;;2.10;1.38;;;6.90;99.90;;;;;;5069476;28;20024;-77
2023/04/30 00:54:19;;;;;;;2.53;1.10;;;6.90;99.90;;;;;;5101104;28;20035;-77
2023/04/30 00:56:45;;;;;;;2.30;1.13;;;6.90;99.90;;;;;;5088492;28;20141;-77
2023/04/30 00:59:12;;;;;;;3.00;1.10;;;6.90;99.90;;;;;;5091642;28;20075;-77
2023/04/30 01:01:38;;;;;;;2.22;1.25;;;6.80;99.90;;;;;;5109076;27;20092;-77
2023/04/30 01:04:04;;;;;;;2.05;1.00;;;6.80;99.90;;;;;;5142667;27;20039;-77
2023/04/30 01:06:30;;;;;;;4.32;1.33;;;6.80;99.90;;;;;;5088090;28;20295;-77
2023/04/30 01:08:56;;;;;;;2.08;1.10;;;6.80;99.90;;;;;;5102171;28;20222;-77
2023/04/30 01:11:32;;;;;;;1.92;1.05;;;6.80;99.90;;;;;;5074555;28;20079;-77
2023/04/30 01:14:07;;;;;;;2.50;1.15;;;6.70;99.90;;;;;;5090177;27;20528;-77
2023/04/30 01:16:40;;;;;;;2.33;0.98;;;6.70;99.90;;;;;;5092283;28;20039;-77
2023/04/30 01:19:50;;;;;;;3.78;1.08;;;6.70;99.90;;;;;;5071002;28;20047;-77
2023/04/30 01:22:51;;;;;;;1.52;1.00;;;6.60;99.90;;;;;;5051525;28;20055;-77
2023/04/30 01:25:52;;;;;;;5.25;1.30;;;6.60;99.90;;;;;;5091438;28;20178;-77
2023/04/30 01:28:19;;;;;;;4.38;1.50;;;6.50;99.90;;;;;;5098209;28;20044;-77
2023/04/30 01:30:45;;;;;;;2.65;1.45;;;6.50;99.90;;;;;;5091195;28;20032;-77
2023/04/30 01:33:12;;;;;;;1.70;1.00;;;6.60;99.90;;;;;;5095209;28;20077;-77
2023/04/30 01:36:10;;;;;;;3.22;1.48;;;6.60;99.90;;;;;;5076567;28;20036;-77
2023/04/30 01:39:10;;;;;;;4.55;1.80;;;6.60;99.90;;;;;;5089828;28;20409;-77
2023/04/30 01:41:41;;;;;;;2.65;1.27;;;6.60;99.90;;;;;;5107910;27;20485;-77
2023/04/30 01:44:25;;;;;;;1.25;0.93;;;6.50;99.90;;;;;;5121708;27;20044;-77
2023/04/30 01:47:06;;;;;;;2.80;0.90;;;6.40;99.90;;;;;;5093769;28;20606;-77
2023/04/30 01:49:53;;;;;;;7.03;1.20;;;6.40;99.90;;;;;;5103556;28;20032;-77
2023/04/30 01:52:38;;;;;;;2.13;1.15;;;6.30;99.90;;;;;;5087899;28;20055;-77
2023/04/30 01:55:35;;;;;;;1.95;0.95;;;6.30;99.90;;;;;;5087911;28;20401;-77
2023/04/30 01:58:05;;;;;;;2.10;0.80;;;6.30;99.90;;;;;;5071162;28;20441;-77
2023/04/30 02:00:31;;;;;;;1.33;0.80;;;6.30;99.90;;;;;;5088036;28;20032;-77
2023/04/30 02:02:57;;;;;;;1.50;0.75;;;6.20;99.90;;;;;;5093796;28;20051;-77
2023/04/30 02:05:23;;;;;;;2.85;0.93;;;6.30;99.90;;;;;;5094511;28;20126;-77
2023/04/30 02:07:50;;;;;;;4.38;1.77;;;6.30;99.90;;;;;;5099163;28;20038;-77
2023/04/30 02:10:18;;;;;;;2.42;1.15;;;6.20;99.90;;;;;;5107394;28;20047;-77
2023/04/30 02:12:44;;;;;;;2.17;1.05;;;6.20;99.90;;;;;;5098870;28;20028;-77
2023/04/30 02:15:10;;;;;;;1.98;1.10;;;6.20;99.90;;;;;;5089150;28;20122;-77
2023/04/30 02:17:35;;;;;;;2.05;1.15;;;6.10;99.90;;;;;;5127350;27;20409;-77
2023/04/30 02:20:01;;;;;;;2.67;1.13;;;6.10;99.90;;;;;;5103305;28;20055;-77
2023/04/30 02:22:27;;;;;;;2.92;1.20;;;6.10;99.90;;;;;;5073207;28;20036;-77
2023/04/30 02:24:54;;;;;;;3.88;1.63;;;6.00;99.90;;;;;;5083869;28;20048;-77
2023/04/30 02:27:21;;;;;;;3.33;1.30;;;6.00;99.90;;;;;;5103634;28;20039;-77
2023/04/30 02:29:47;;;;;;;2.20;1.05;;;6.00;99.90;;;;;;5099801;28;20032;-77
2023/04/30 02:32:13;;;;;;;2.67;1.00;;;6.00;99.90;;;;;;5088285;28;20105;-77
2023/04/30 02:34:39;;;;;;;1.55;0.90;;;6.00;99.90;;;;;;5117336;27;20066;-77
2023/04/30 02:37:05;;;;;;;5.07;1.27;;;6.00;99.90;;;;;;5103036;28;20040;-77
2023/04/30 02:39:31;;;;;;;1.50;0.90;;;6.00;99.90;;;;;;5105937;28;20515;-77
2023/04/30 02:41:57;;;;;;;2.55;1.02;;;6.00;99.90;;;;;;5125452;27;20126;-77
2023/04/30 02:44:22;;;;;;;1.45;0.80;;;6.00;99.90;;;;;;5125950;27;20031;-77
2023/04/30 02:46:48;;;;;;;2.03;1.20;;;6.00;99.90;;;;;;5138612;27;20039;-77
2023/04/30 02:49:13;;;;;;;1.95;0.98;;;6.10;99.90;;;;;;5106458;28;20535;-77
2023/04/30 02:51:39;;;;;;;2.55;1.30;;;6.00;99.90;;;;;;5110480;28;20075;-77
2023/04/30 02:54:05;;;;;;;3.05;1.10;;;6.00;99.90;;;;;;5103385;28;20039;-77
2023/04/30 02:56:30;;;;;;;2.92;1.20;;;5.90;99.90;;;;;;5137035;27;20586;-77
2023/04/30 02:58:56;;;;;;;3.22;1.20;;;5.90;99.90;;;;;;5108157;28;20043;-77
2023/04/30 03:01:21;;;;;;;3.03;1.23;;;5.90;99.90;;;;;;5143680;27;20111;-77
2023/04/30 03:03:47;;;;;;;2.80;1.17;;;5.90;99.90;;;;;;5126979;27;20123;-77
2023/04/30 03:06:13;;;;;;;3.08;1.13;;;5.90;99.90;;;;;;5108547;28;20050;-77
2023/04/30 03:08:38;;;;;;;2.83;1.05;;;5.90;99.90;;;;;;5126564;27;20082;-77
2023/04/30 03:11:04;;;;;;;2.70;1.15;;;5.90;99.90;;;;;;5126895;27;20043;-77
2023/04/30 03:13:29;;;;;;;3.35;1.38;;;5.90;99.90;;;;;;5134867;27;20035;-77
2023/04/30 03:15:59;;;;;;;3.10;1.65;;;5.90;99.90;;;;;;5132580;27;20409;-77
2023/04/30 03:18:28;;;;;;;2.65;1.27;;;5.90;99.90;;;;;;5086792;28;20071;-77
2023/04/30 03:20:54;;;;;;;2.25;0.90;;;5.90;99.90;;;;;;5089478;28;20044;-77
2023/04/30 03:23:20;;;;;;;1.80;0.98;;;5.90;99.90;;;;;;5090438;28;20390;-77
2023/04/30 03:25:46;;;;;;;2.15;1.05;;;5.80;99.90;;;;;;5074388;28;20035;-77
2023/04/30 03:28:12;;;;;;;2.30;1.08;;;5.80;99.90;;;;;;5103118;27;20043;-77
2023/04/30 03:30:38;;;;;;;2.60;0.90;;;5.80;99.90;;;;;;5109114;28;20492;-77
2023/04/30 03:33:05;;;;;;;1.95;0.95;;;5.80;99.90;;;;;;5125138;27;20051;-77
2023/04/30 03:35:32;;;;;;;2.75;1.17;;;5.80;99.90;;;;;;5107085;28;20051;-77
2023/04/30 03:38:00;;;;;;;1.83;1.17;;;5.80;99.90;;;;;;5103342;28;20047;-77
2023/04/30 03:40:26;;;;;;;2.72;1.23;;;5.80;99.90;;;;;;5094731;28;20043;-77
2023/04/30 03:42:51;;;;;;;2.95;1.15;;;5.80;99.90;;;;;;5104791;28;20520;-77
2023/04/30 03:45:17;;;;;;;2.20;1.20;;;5.80;99.90;;;;;;5106302;28;20040;-77
2023/04/30 03:47:43;;;;;;;1.83;1.00;;;5.80;99.90;;;;;;5107679;28;20038;-77
2023/04/30 03:50:09;;;;;;;3.55;1.10;;;5.70;99.90;;;;;;5104866;28;20043;-77
2023/04/30 03:52:38;;;;;;;2.53;1.33;;;5.70;99.90;;;;;;5085851;28;20110;-77
2023/04/30 03:55:04;;;;;;;2.75;1.30;;;5.70;99.90;;;;;;5102758;28;20150;-77
2023/04/30 03:57:30;;;;;;;1.83;0.70;;;5.70;99.90;;;;;;5099858;27;20040;-77
2023/04/30 03:59:56;;;;;;;2.33;1.10;;;5.70;99.90;;;;;;5099667;28;20039;-77
2023/04/30 04:02:22;;;;;;;1.30;0.90;;;5.70;99.90;;;;;;5106643;27;20087;-77
2023/04/30 04:04:48;;;;;;;3.03;0.88;;;5.70;99.90;;;;;;5105512;28;20043;-77
2023/04/30 04:07:14;;;;;;;1.70;0.93;;;5.70;99.90;;;;;;5087004;28;20028;-77
2023/04/30 04:09:40;;;;;;;2.58;1.27;;;5.70;99.90;;;;;;5072116;28;20042;-77
2023/04/30 04:12:06;;;;;;;5.32;1.20;;;5.70;99.90;;;;;;5075717;28;20093;-77
2023/04/30 04:14:32;;;;;;;2.33;0.95;;;5.70;99.90;;;;;;5103962;28;20031;-77
2023/04/30 04:16:58;;;;;;;2.67;1.20;;;5.70;99.90;;;;;;5142354;27;20043;-77
2023/04/30 04:19:25;;;;;;;2.20;1.13;;;5.80;99.90;;;;;;5109268;28;20063;-77
2023/04/30 04:21:51;;;;;;;2.95;1.48;;;5.80;99.90;;;;;;5089370;28;20028;-77
2023/04/30 04:24:16;;;;;;;2.38;1.10;;;5.80;99.90;;;;;;5090119;28;20028;-77
2023/04/30 04:26:42;;;;;;;3.30;1.35;;;5.80;99.90;;;;;;5099356;27;20042;-77
2023/04/30 04:29:08;;;;;;;3.03;1.20;;;5.80;99.90;;;;;;5103877;28;20036;-77
2023/04/30 04:31:34;;;;;;;2.00;1.00;;;5.80;99.90;;;;;;5077933;28;20070;-77
2023/04/30 04:34:01;;;;;;;2.50;1.00;;;5.80;99.90;;;;;;5125182;27;20063;-77
2023/04/30 04:36:29;;;;;;;4.13;1.38;;;5.80;99.90;;;;;;5081949;28;20497;-77
2023/04/30 04:38:56;;;;;;;1.92;1.25;;;5.90;99.90;;;;;;5088809;28;20044;-77
2023/04/30 04:41:23;;;;;;;2.90;1.17;;;5.80;99.90;;;;;;5096867;27;20039;-77
2023/04/30 04:43:49;;;;;;;2.15;1.10;;;5.90;99.90;;;;;;5103194;28;20036;-77
2023/04/30 04:46:15;;;;;;;5.35;1.42;;;5.90;99.90;;;;;;5083270;27;20081;-77
2023/04/30 04:48:41;;;;;;;2.80;1.05;;;5.90;99.90;;;;;;5088309;28;20035;-77
2023/04/30 04:51:08;;;;;;;2.50;1.20;;;6.00;99.90;;;;;;5088479;28;20036;-77
2023/04/30 04:53:33;;;;;;;2.08;1.02;;;6.00;99.90;;;;;;5086198;28;20112;-77
2023/04/30 04:55:59;;;;;;;1.35;0.82;;;6.10;99.90;;;;;;5083043;28;20562;-77
2023/04/30 04:58:25;;;;;;;2.97;1.00;;;6.10;99.90;;;;;;5107768;28;20036;-77
2023/04/30 05:00:51;;;;;;;2.78;1.15;;;6.10;99.90;;;;;;5106262;27;20038;-77
2023/04/30 05:03:19;;;;;;;2.88;1.40;;;6.10;99.90;;;;;;5092140;28;20035;-77
2023/04/30 05:05:45;;;;;;;2.15;1.05;;;6.10;99.90;;;;;;5103153;28;20036;-77
2023/04/30 05:08:11;;;;;;;1.92;1.00;;;6.10;99.90;;;;;;5112873;27;20325;-77
2023/04/30 05:10:37;;;;;;;2.88;1.38;;;6.10;99.90;;;;;;5136939;27;20118;-77
2023/04/30 05:13:02;;;;;;;2.88;1.42;;;6.20;99.90;;;;;;5102947;28;20046;-77
2023/04/30 05:15:28;;;;;;;4.60;1.38;;;6.20;99.90;;;;;;5107962;28;20048;-77
2023/04/30 05:17:54;;;;;;;2.80;1.00;;;6.20;99.90;;;;;;5111063;27;20078;-77
2023/04/30 05:20:20;;;;;;;2.47;1.40;;;6.20;99.90;;;;;;5088256;28;20146;-77
2023/04/30 05:22:45;;;;;;;2.42;1.20;;;6.20;99.90;;;;;;5070850;28;20040;-77
2023/04/30 05:25:11;;;;;;;3.92;1.63;;;6.20;99.90;;;;;;5095897;28;20040;-77
2023/04/30 05:27:36;;;;;;;2.65;1.27;;;6.20;99.90;;;;;;5091495;28;20044;-77
2023/04/30 05:30:02;;;;;;;2.95;1.40;;;6.20;99.90;;;;;;5087733;28;20058;-77
2023/04/30 05:32:28;;;;;;;3.65;1.15;;;6.30;99.90;;;;;;5103947;28;20742;-77
2023/04/30 05:34:54;;;;;;;3.85;1.60;;;6.50;99.90;;;;;;5108876;28;20058;-77
2023/04/30 05:37:21;;;;;;;3.13;1.38;;;7.00;99.90;;;;;;5107436;28;20048;-77
2023/04/30 05:39:47;;;;;;;2.88;1.60;;;7.50;99.90;;;;;;5100321;28;20070;-77
2023/04/30 05:42:13;;;;;;;4.68;1.77;;;7.60;99.90;;;;;;5103803;28;20122;-77
2023/04/30 05:44:40;;;;;;;3.33;1.55;;;7.50;99.90;;;;;;5103054;28;20119;-77
2023/04/30 05:47:05;;;;;;;5.05;1.40;;;7.40;99.90;;;;;;5097021;28;20027;-77
2023/04/30 05:49:31;;;;;;;4.97;1.52;;;7.30;99.90;;;;;;5117282;28;20447;-77
2023/04/30 05:51:57;;;;;;;3.58;1.35;;;7.30;99.90;;;;;;5070932;28;20040;-77
2023/04/30 05:54:22;;;;;;;3.22;1.65;;;7.30;99.90;;;;;;5091069;28;20031;-77
2023/04/30 05:56:48;;;;;;;2.80;1.20;;;7.30;99.90;;;;;;5141259;27;20233;-77
2023/04/30 05:59:13;;;;;;;3.35;1.50;;;7.20;99.90;;;;;;5087720;28;20654;-77
2023/04/30 06:01:39;;;;;;;5.63;1.80;;;7.20;99.90;;;;;;5071162;28;20438;-77
2023/04/30 06:04:05;;;;;;;4.40;1.75;;;7.30;99.90;;;;;;5105011;28;20501;-77
2023/04/30 06:06:30;;;;;;;4.50;1.50;;;7.30;99.90;;;;;;5084166;28;20485;-77
2023/04/30 06:08:56;;;;;;;2.45;1.25;;;7.30;99.90;;;;;;5080362;28;20054;-77
2023/04/30 06:11:24;;;;;;;3.10;1.33;;;7.30;99.90;;;;;;5107307;28;20083;-77
2023/04/30 06:13:50;;;;;;;5.35;1.83;;;7.30;99.90;;;;;;5091502;28;20127;-77
2023/04/30 06:16:16;;;;;;;9.27;1.80;;;7.40;99.90;;;;;;5077435;28;20118;-77
2023/04/30 06:18:41;;;;;;;2.97;1.30;;;7.40;99.90;;;;;;5082229;28;20138;-77
2023/04/30 06:21:07;;;;;;;5.25;1.67;;;7.40;99.90;;;;;;5136304;27;20534;-77
2023/04/30 06:23:32;;;;;;;5.63;1.73;;;7.40;99.90;;;;;;5129106;27;20070;-77
2023/04/30 06:25:58;;;;;;;4.10;1.85;;;7.50;99.90;;;;;;5100464;28;20048;-77
2023/04/30 06:28:24;;;;;;;3.83;1.88;;;8.00;99.90;;;;;;5108938;28;20404;-77
2023/04/30 06:30:50;;;;;;;4.20;1.70;;;8.60;99.90;;;;;;5096835;27;20036;-77
2023/04/30 06:33:16;;;;;;;3.78;2.03;;;8.90;99.90;;;;;;5073483;28;20127;-78
2023/04/30 06:35:42;;;;;;;7.38;1.58;;;9.00;99.90;;;;;;5091293;28;20135;-77
2023/04/30 06:38:07;;;;;;;5.35;1.50;;;9.00;99.90;;;;;;5098249;28;20494;-81
2023/04/30 06:40:34;;;;;;;3.25;1.58;;;9.00;99.90;;;;;;5083263;28;20082;-77
2023/04/30 06:42:59;;;;;;;3.63;1.40;;;9.00;99.90;;;;;;5080076;28;20081;-77
2023/04/30 06:45:25;;;;;;;3.53;1.60;;;8.90;99.90;;;;;;5110945;27;20043;-77
2023/04/30 06:47:51;;;;;;;4.28;1.73;;;8.90;99.90;;;;;;5128475;27;20027;-77
2023/04/30 06:50:17;;;;;;;2.90;1.40;;;8.90;99.90;;;;;;5105642;28;20040;-77
2023/04/30 06:52:43;;;;;;;5.45;1.40;;;8.90;99.90;;;;;;5131759;27;21680;-77
2023/04/30 06:55:08;;;;;;;3.75;1.55;;;8.90;99.90;;;;;;5079369;27;20062;-77
2023/04/30 06:57:36;;;;;;;5.45;1.30;;;8.90;99.90;;;;;;5123220;27;20371;-77
2023/04/30 07:00:06;;;;;;;3.00;1.40;;;8.80;99.90;;;;;;5092353;28;20051;-77
2023/04/30 07:02:32;;;;;;;6.03;1.30;;;8.80;99.90;;;;;;5090217;28;20069;-77
2023/04/30 07:04:57;;;;;;;4.03;1.70;;;8.80;99.90;;;;;;5090626;28;20048;-77
2023/04/30 07:07:23;;;;;;;6.30;1.48;;;8.90;99.90;;;;;;5112517;27;20121;-77
2023/04/30 07:09:49;;;;;;;4.32;1.30;;;8.90;99.90;;;;;;5078874;28;20502;-77
2023/04/30 07:12:15;;;;;;;1.63;1.00;;;8.90;99.90;;;;;;5101215;27;20069;-77
2023/04/30 07:14:41;;;;;;;3.17;1.30;;;8.90;99.90;;;;;;5096723;28;20040;-77
2023/04/30 07:17:06;;;;;;;3.65;1.52;;;9.00;99.90;;;;;;5138482;27;20937;-77
2023/04/30 07:19:32;;;;;;;3.17;1.38;;;9.00;99.90;;;;;;5133343;27;20051;-77
2023/04/30 07:21:58;;;;;;;6.38;1.38;;;8.90;99.90;;;;;;5108593;27;20496;-76
2023/04/30 07:24:23;;;;;;;7.03;1.40;;;8.90;99.90;;;;;;5080376;27;20606;-77
2023/04/30 07:26:49;;;;;;;3.47;1.10;;;8.90;99.90;;;;;;5113696;27;20048;-77
2023/04/30 07:29:15;;;;;;;2.30;1.13;;;8.90;99.90;;;;;;5095053;27;20473;-77
2023/04/30 07:31:40;;;;;;;4.72;0.90;;;8.90;99.90;;;;;;5093198;28;20101;-76
2023/04/30 07:34:07;;;;;;;4.22;1.23;;;8.80;99.90;;;;;;5096194;27;20036;-76
2023/04/30 07:36:33;;;;;;;4.55;1.00;;;8.80;99.90;;;;;;5100055;28;20054;-76
2023/04/30 07:38:58;;;;;;;5.45;1.17;;;8.80;99.90;;;;;;5100202;28;20039;-76
2023/04/30 07:41:25;;;;;;;2.15;1.20;;;8.80;99.90;;;;;;5076431;28;20055;-76
2023/04/30 07:43:50;;;;;;;7.72;1.50;;;8.90;99.90;;;;;;5114964;27;20057;-76
2023/04/30 07:46:16;;;;;;;5.28;1.35;;;8.90;99.90;;;;;;5075954;28;20036;-76
2023/04/30 07:48:42;;;;;;;6.50;1.63;;;8.90;99.90;;;;;;5122919;27;20072;-76
2023/04/30 07:51:07;;;;;;;4.32;1.45;;;9.00;99.90;;;;;;5094283;28;20453;-76
2023/04/30 07:53:33;;;;;;;3.35;1.05;;;9.10;99.90;;;;;;5117060;27;20035;-76
2023/04/30 07:55:59;;;;;;;3.05;1.00;;;9.10;99.90;;;;;;5097737;28;20598;-76
2023/04/30 07:58:24;;;;;;;4.50;1.45;;;9.20;99.90;;;;;;5101240;28;20039;-76
2023/04/30 08:00:50;;;;;;;3.83;1.52;;;9.30;99.90;;;;;;5090838;28;20396;-77
2023/04/30 08:03:16;;;;;;;6.28;1.65;;;9.30;99.90;;;;;;5093758;27;20036;-77
2023/04/30 08:05:41;;;;;;;3.20;1.23;;;9.40;99.90;;;;;;5088948;28;20416;-77
2023/04/30 08:08:07;;;;;;;4.03;1.38;;;9.40;99.90;;;;;;5103946;27;20044;-77
2023/04/30 08:10:33;;;;;;;3.60;1.35;;;9.40;99.90;;;;;;5086151;28;20039;-76
2023/04/30 08:12:59;;;;;;;4.63;1.20;;;9.50;99.90;;;;;;5092516;28;20032;-76
2023/04/30 08:15:25;;;;;;;4.10;1.50;;;9.60;99.90;;;;;;5094045;28;20104;-77
2023/04/30 08:17:51;;;;;;;6.30;1.30;;;9.60;99.90;;;;;;5084456;28;20036;-77
2023/04/30 08:20:17;;;;;;;2.60;1.10;;;9.60;99.90;;;;;;5096268;27;20101;-77
2023/04/30 08:22:44;;;;;;;2.95;1.30;;;9.60;99.90;;;;;;5095261;27;20040;-77
2023/04/30 08:25:11;;;;;;;6.13;1.30;;;9.60;99.90;;;;;;5105024;28;20043;-77
2023/04/30 08:27:38;;;;;;;3.10;1.38;;;9.60;99.90;;;;;;5097302;28;20047;-77
2023/04/30 08:30:06;;;;;;;2.20;1.02;;;9.80;99.90;;;;;;5134931;27;20031;-77
2023/04/30 08:32:35;;;;;;;1.95;1.33;;;9.80;99.90;;;;;;5087873;27;20485;-77
2023/04/30 08:35:01;;;;;;;4.97;1.48;;;9.90;99.90;;;;;;5086046;27;20050;-77
2023/04/30 08:37:27;;;;;;;5.18;1.17;;;9.90;99.90;;;;;;5093238;28;20040;-77
2023/04/30 08:39:53;;;;;;;5.75;1.27;;;10.00;99.90;;;;;;5097970;27;20050;-77
2023/04/30 08:42:23;;;;;;;2.42;1.17;;;10.10;99.90;;;;;;5095488;27;20702;-77
2023/04/30 08:44:49;;;;;;;2.03;1.02;;;10.10;99.90;;;;;;5088293;28;20056;-77
2023/04/30 08:47:16;;;;;;;2.53;1.10;;;10.20;99.90;;;;;;5088038;28;20039;-77
2023/04/30 08:49:42;;;;;;;3.95;1.02;;;10.20;99.90;;;;;;5090593;28;20085;-77
2023/04/30 08:52:08;;;;;;;4.80;1.50;;;10.30;99.90;;;;;;5107096;28;20032;-77
2023/04/30 08:54:35;;;;;;;3.45;1.15;;;10.30;99.90;;;;;;5107017;27;20032;-77
2023/04/30 08:57:01;;;;;;;2.42;1.17;;;10.40;99.90;;;;;;5107828;28;20049;-77
2023/04/30 08:59:27;;;;;;;2.45;0.85;;;10.40;99.90;;;;;;5092799;28;20477;-77
2023/04/30 09:01:52;;;;;;;3.17;1.05;;;10.40;99.90;;;;;;5086103;28;20453;-77
2023/04/30 09:04:18;;;;;;;5.78;1.45;;;10.40;99.90;;;;;;5129749;27;20040;-79
2023/04/30 09:06:44;;;;;;;4.65;1.60;;;10.40;99.90;;;;;;5097246;28;20085;-77
2023/04/30 09:09:14;;;;;;;3.55;1.13;;;10.40;99.90;;;;;;5077762;28;20047;-77
2023/04/30 09:11:41;;;;;;;3.42;1.05;;;10.50;99.90;;;;;;5100057;28;20059;-77
2023/04/30 09:14:07;;;;;;;4.20;1.05;;;10.50;99.90;;;;;;5089520;28;20061;-77
2023/04/30 09:16:47;;;;;;;2.70;0.70;;;10.50;99.90;;;;;;5078093;28;20048;-77
2023/04/30 09:19:27;;;;;;;5.43;1.20;;;10.50;99.90;;;;;;5095283;28;20047;-77
2023/04/30 09:21:53;;;;;;;3.95;1.00;;;10.50;99.90;;;;;;5090464;28;20035;-77
2023/04/30 09:24:19;;;;;;;4.82;1.10;;;10.60;99.90;;;;;;5093572;28;20036;-77
2023/04/30 09:26:49;;;;;;;3.05;1.08;;;10.60;99.90;;;;;;5124799;27;20036;-77
2023/04/30 09:29:14;;;;;;;3.97;1.27;;;10.60;99.90;;;;;;5074222;28;20067;-76
2023/04/30 09:31:45;;;;;;;6.03;1.20;;;10.60;99.90;;;;;;5109730;28;20067;-77
2023/04/30 09:34:12;;;;;;;3.30;0.90;;;10.60;99.90;;;;;;5093105;28;20043;-82
2023/04/30 09:36:53;;;;;;;2.80;1.00;;;10.70;99.90;;;;;;5102086;28;20031;-77
2023/04/30 09:39:19;;;;;;;4.38;1.00;;;10.70;99.90;;;;;;5096908;28;20040;-77
2023/04/30 09:41:45;;;;;;;3.17;0.88;;;10.70;99.90;;;;;;5104611;28;20043;-77
2023/04/30 09:44:27;;;;;;;3.58;0.88;;;10.80;99.90;;;;;;5084864;27;20078;-77
2023/04/30 09:46:55;;;;;;;2.17;1.10;;;10.80;99.90;;;;;;5097690;27;20039;-77
2023/04/30 09:49:21;;;;;;;2.13;0.98;;;10.80;99.90;;;;;;5105754;28;20070;-78
2023/04/30 09:51:58;;;;;;;4.35;1.50;;;10.90;99.90;;;;;;5102418;28;20063;-78
2023/04/30 09:54:28;;;;;;;2.42;1.10;;;10.90;99.90;;;;;;5102727;28;20038;-78
2023/04/30 09:56:56;;;;;;;4.38;1.50;;;10.90;99.90;;;;;;5099897;28;20828;-77
2023/04/30 09:59:29;;;;;;;2.20;1.15;;;10.90;99.90;;;;;;5098461;28;20082;-78
2023/04/30 10:02:00;;;;;;;6.57;1.65;;;10.90;99.90;;;;;;5086281;28;20203;-78
2023/04/30 10:04:32;;;;;;;3.97;1.60;;;11.00;99.90;;;;;;5099513;27;20083;-78
2023/04/30 10:06:59;;;;;;;5.25;1.20;;;11.00;99.90;;;;;;5101679;28;20089;-77
2023/04/30 10:09:37;;;;;;;2.15;1.08;;;11.00;99.90;;;;;;5101417;28;20040;-77
2023/04/30 10:12:07;;;;;;;4.03;1.40;;;11.10;99.90;;;;;;5104357;28;20039;-77
2023/04/30 10:14:33;;;;;;;3.90;1.27;;;11.10;99.90;;;;;;5083236;28;20490;-77
2023/04/30 10:17:13;;;;;;;2.22;0.93;;;11.10;99.90;;;;;;5102674;28;20529;-77
2023/04/30 10:19:41;;;;;;;5.60;1.52;;;11.10;99.90;;;;;;5117812;27;20056;-77
2023/04/30 10:22:08;;;;;;;3.85;1.65;;;11.20;99.90;;;;;;5080236;28;20039;-77
2023/04/30 10:24:34;;;;;;;3.30;1.23;;;11.20;99.90;;;;;;5082286;28;20036;-78
2023/04/30 10:26:59;;;;;;;4.95;1.20;;;11.30;99.90;;;;;;5101843;28;20386;-78
2023/04/30 10:29:25;;;;;;;4.15;1.15;;;11.40;99.90;;;;;;5079964;28;20042;-79
2023/04/30 10:31:52;;;;;;;5.72;1.70;;;11.40;99.90;;;;;;5128815;27;20040;-77
2023/04/30 10:34:42;;;;;;;3.53;1.25;;;11.40;99.90;;;;;;5091495;28;20028;-77
2023/04/30 10:37:30;;;;;;;4.63;1.10;;;11.50;99.90;;;;;;5096877;28;20522;-77
2023/04/30 10:39:55;;;;;;;7.18;1.38;;;11.60;99.90;;;;;;5090943;28;20508;-77
2023/04/30 10:42:21;;;;;;;5.15;1.50;;;11.70;99.90;;;;;;5093095;28;20122;-77
2023/04/30 10:44:47;;;;;;;4.30;1.15;;;11.70;99.90;;;;;;5144387;27;20035;-77
2023/04/30 10:47:15;;;;;;;1.92;0.98;;;11.80;99.90;;;;;;5128067;27;20164;-77
2023/04/30 10:49:47;;;;;;;4.10;1.30;;;11.80;99.90;;;;;;5111305;28;20036;-77
2023/04/30 10:52:12;;;;;;;4.55;1.40;;;11.90;99.90;;;;;;5093835;28;20490;-77
2023/04/30 10:54:40;;;;;;;4.97;1.52;;;11.90;99.90;;;;;;5090392;28;20039;-77
2023/04/30 10:57:13;;;;;;;2.28;1.27;;;11.90;99.90;;;;;;5106128;28;20389;-77
2023/04/30 10:59:45;;;;;;;7.45;1.63;;;11.90;99.90;;;;;;5107257;28;20043;-77
2023/04/30 11:02:14;;;;;;;2.58;1.35;;;11.90;99.90;;;;;;5093380;28;20580;-77
2023/04/30 11:05:14;;;;;;;4.22;1.42;;;11.90;99.90;;;;;;5093895;28;20501;-77
2023/04/30 11:07:51;;;;;;;5.60;1.27;;;11.90;99.90;;;;;;5110342;28;20044;-77
2023/04/30 11:10:21;;;;;;;3.47;1.77;;;11.90;99.90;;;;;;5105999;28;20127;-77
2023/04/30 11:12:48;;;;;;;3.72;1.10;;;12.00;99.90;;;;;;5088639;28;20087;-77
2023/04/30 11:15:19;;;;;;;4.40;1.00;;;12.00;99.90;;;;;;5090232;28;20040;-77
2023/04/30 11:17:48;;;;;;;4.45;1.00;;;12.00;99.90;;;;;;5107010;28;20047;-77
2023/04/30 11:20:18;;;;;;;1.90;1.13;;;12.10;99.90;;;;;;5090692;28;20416;-77
2023/04/30 11:22:44;;;;;;;2.90;1.08;;;12.10;99.90;;;;;;5090046;28;20032;-77
2023/04/30 11:25:18;;;;;;;4.65;1.25;;;12.10;99.90;;;;;;5081629;28;20104;-77
2023/04/30 11:27:44;;;;;;;2.45;0.98;;;12.10;99.90;;;;;;5095636;27;20067;-77
2023/04/30 11:30:13;;;;;;;3.88;1.15;;;12.10;99.90;;;;;;5090428;28;20036;-77
2023/04/30 11:32:40;;;;;;;2.20;0.80;;;12.10;99.90;;;;;;5072422;28;20411;-77
2023/04/30 11:35:06;;;;;;;4.15;0.98;;;12.20;99.90;;;;;;5081658;28;20036;-77
2023/04/30 11:37:38;;;;;;;3.75;1.00;;;12.20;99.90;;;;;;5089848;28;20553;-77
2023/04/30 11:40:06;;;;;;;2.42;1.10;;;12.20;99.90;;;;;;5090085;28;20036;-77
2023/04/30 11:42:35;;;;;;;4.10;1.00;;;12.20;99.90;;;;;;5092979;28;20047;-77
2023/04/30 11:45:12;;;;;;;2.78;0.95;;;12.30;99.90;;;;;;5072687;28;20126;-77
2023/04/30 11:47:44;;;;;;;3.08;1.05;;;12.30;99.90;;;;;;5089399;28;20561;-77
2023/04/30 11:50:26;;;;;;;2.22;1.20;;;12.30;99.90;;;;;;5123586;27;20493;-77
2023/04/30 11:52:52;;;;;;;2.20;0.88;;;12.30;99.90;;;;;;5089378;28;20040;-77
2023/04/30 11:55:19;;;;;;;2.53;0.93;;;12.30;99.90;;;;;;5073245;28;20246;-77
2023/04/30 11:57:48;;;;;;;3.53;1.02;;;12.40;99.90;;;;;;5103123;28;20100;-77
2023/04/30 12:00:18;;;;;;;4.28;1.30;;;12.40;99.90;;;;;;5092886;28;20039;-77
2023/04/30 12:02:46;;;;;;;3.63;0.95;;;12.40;99.90;;;;;;5109326;28;20115;-77
2023/04/30 12:05:20;;;;;;;2.42;1.10;;;12.50;99.90;;;;;;5095006;28;20220;-77
2023/04/30 12:07:46;;;;;;;4.07;1.50;;;12.50;99.90;;;;;;5078673;28;20074;-77
2023/04/30 12:10:12;;;;;;;4.47;1.25;;;12.50;99.90;;;;;;5144007;27;20044;-77
2023/04/30 12:12:38;;;;;;;1.77;0.80;;;12.50;99.90;;;;;;5108526;28;20499;-77
2023/04/30 12:15:12;;;;;;;2.85;1.40;;;12.50;99.90;;;;;;5109536;28;20035;-77
2023/04/30 12:17:37;;;;;;;3.67;1.30;;;12.50;99.90;;;;;;5098620;28;20047;-77
2023/04/30 12:20:04;;;;;;;3.10;1.55;;;12.50;99.90;;;;;;5088758;28;20501;-77
2023/04/30 12:22:29;;;;;;;2.72;1.25;;;12.60;99.90;;;;;;5088754;28;20086;-77
2023/04/30 12:24:58;;;;;;;4.15;1.55;;;12.60;99.90;;;;;;5094723;27;20524;-77
2023/04/30 12:27:23;;;;;;;3.60;0.80;;;12.60;99.90;;;;;;5108654;28;20427;-77
2023/04/30 12:29:50;;;;;;;3.25;1.30;;;12.60;99.90;;;;;;5109825;28;20088;-77
2023/04/30 12:32:20;;;;;;;2.92;1.17;;;12.70;99.90;;;;;;5109408;28;20169;-77
2023/04/30 12:34:47;;;;;;;3.95;1.45;;;12.60;99.90;;;;;;5105955;28;20512;-77
2023/04/30 12:37:16;;;;;;;4.43;1.33;;;12.70;99.90;;;;;;5101344;27;20540;-77
2023/04/30 12:39:42;;;;;;;3.70;1.08;;;12.80;99.90;;;;;;5092623;28;20051;-77
2023/04/30 12:42:09;;;;;;;2.70;1.25;;;12.80;99.90;;;;;;5137700;27;20054;-77
2023/04/30 12:44:46;;;;;;;2.53;1.13;;;12.80;99.90;;;;;;5072774;27;20050;-77
2023/04/30 12:47:13;;;;;;;2.55;1.17;;;12.80;99.90;;;;;;5091595;28;20200;-77
2023/04/30 12:49:38;;;;;;;2.55;1.13;;;12.80;99.90;;;;;;5098456;27;20040;-77
2023/04/30 12:52:09;;;;;;;2.90;1.00;;;12.80;99.90;;;;;;5086197;28;20058;-77
2023/04/30 12:54:36;;;;;;;2.95;1.27;;;12.90;99.90;;;;;;5108820;28;20039;-77
2023/04/30 12:57:09;;;;;;;2.45;1.02;;;12.90;99.90;;;;;;5071557;28;20115;-77